首页
METAR-TAF:

METAR-TAF

机场 :

迪本多夫, 瑞士

纬度: 47-23-55N, 经度: 8-38-53E, 海拔: 448米

当前天气观测

该预报发布于38分钟前的09:20 UTC
风速5节,风向多变
温度 18°C
湿度 52%
气压 1019 hPa
能见度10公里或以上

METAR: LSMD 010920Z AUTO VRB05KT 9999NDV NCD 18/08 Q1019 RMK

时间: 11:58 (09:58 UTC)


TAF: 丢失

超过4000个机场的气象观测和天气预报(METAR&TAF报告)。

可查询的气象台以黄色和红色小点在地图上表示。

将鼠标移到小点上方,可查看气象台名称。

然后点击查看天气观测和预报。

如需切换地图:点击带黑十字的绿色按钮放大地图;点击带横线的绿色按钮缩小地图;或者点击绿色箭头查看邻近地区的地图。


METAR-TAF: